Time;durP1;ratioP1;P1;durP2;ratioP2;P2;SDS_P1;SDS_P2;PMS_P1;PMS_P2;Temp;Humidity;BMP_temperature;BMP_pressure;BME280_temperature;BME280_humidity;BME280_pressure;Samples;Min_cycle;Max_cycle;Signal;HPM_P1;HPM_P2
2022/12/14 00:01:09;;;;;;;6.82;5.30;;;;;;;21.14;41.00;94606.63;5015262;28;20052;-62
2022/12/14 00:03:34;;;;;;;6.28;5.30;;;;;;;21.09;40.90;94591.13;5013803;28;20111;-62
2022/12/14 00:06:11;;;;;;;6.80;5.38;;;;;;;21.16;40.92;94596.00;5013799;28;20480;-61
2022/12/14 00:08:37;;;;;;;6.05;5.03;;;;;;;21.11;40.87;94599.50;4994732;28;20154;-61
2022/12/14 00:11:02;;;;;;;6.82;5.18;;;;;;;21.09;40.98;94591.13;4979388;28;21707;-63
2022/12/14 00:13:27;;;;;;;6.03;5.00;;;;;;;21.13;40.93;94604.44;5013756;28;20106;-62
2022/12/14 00:15:53;;;;;;;6.15;5.15;;;;;;;21.06;41.22;94603.00;4991469;28;20073;-61
2022/12/14 00:18:18;;;;;;;6.03;4.88;;;;;;;21.12;41.05;94609.13;4994024;28;20178;-62
2022/12/14 00:20:44;;;;;;;6.35;5.30;;;;;;;21.08;40.69;94611.38;4991438;28;20064;-61
2022/12/14 00:23:09;;;;;;;7.10;5.00;;;;;;;21.08;41.42;94611.38;4993385;28;20084;-61
2022/12/14 00:25:35;;;;;;;5.85;4.63;;;;;;;21.09;41.16;94612.09;4993616;28;20156;-61
2022/12/14 00:28:01;;;;;;;8.05;5.68;;;;;;;20.88;40.97;94596.69;4992667;28;20479;-61
2022/12/14 00:30:27;;;;;;;7.03;5.28;;;;;;;20.69;40.88;94555.13;4993865;28;20458;-61
2022/12/14 00:32:52;;;;;;;6.95;5.60;;;;;;;21.04;41.09;94605.47;4991889;28;20143;-62
2022/12/14 00:35:18;;;;;;;6.22;5.15;;;;;;;21.04;41.10;94605.47;4993262;28;20040;-61
2022/12/14 00:37:43;;;;;;;6.95;4.88;;;;;;;20.86;41.21;94577.47;4994971;28;20037;-61
2022/12/14 00:40:09;;;;;;;6.35;5.05;;;;;;;20.52;41.13;94576.13;4993790;28;20092;-61
2022/12/14 00:42:34;;;;;;;6.57;4.85;;;;;;;20.98;40.93;94599.34;4970477;28;20045;-61
2022/12/14 00:45:01;;;;;;;7.05;5.20;;;;;;;20.95;40.92;94596.16;4993098;28;23158;-61
2022/12/14 00:47:26;;;;;;;5.85;4.82;;;;;;;20.83;41.00;94578.47;4993736;28;20047;-62
2022/12/14 00:49:52;;;;;;;7.03;5.20;;;;;;;21.01;41.16;94609.19;5010909;28;20037;-60
2022/12/14 00:52:17;;;;;;;7.20;5.22;;;;;;;21.02;41.08;94618.81;4993097;28;20061;-61
2022/12/14 00:54:43;;;;;;;6.47;4.88;;;;;;;20.96;41.22;94609.97;4990963;28;20053;-61
2022/12/14 00:57:09;;;;;;;7.18;5.00;;;;;;;20.89;41.37;94593.47;4993967;28;20140;-61
2022/12/14 00:59:34;;;;;;;7.32;5.13;;;;;;;20.99;41.31;94614.38;4994497;28;20071;-62
2022/12/14 01:02:00;;;;;;;6.43;5.07;;;;;;;20.75;41.05;94599.25;4991313;28;20191;-60
2022/12/14 01:04:27;;;;;;;6.13;5.00;;;;;;;20.82;41.09;94582.41;4993859;28;21120;-61
2022/12/14 01:06:53;;;;;;;5.90;5.22;;;;;;;20.75;41.24;94578.28;4993631;28;20050;-61
2022/12/14 01:09:19;;;;;;;6.07;4.95;;;;;;;20.80;41.27;94580.22;4990405;28;20049;-62
2022/12/14 01:11:45;;;;;;;6.40;5.07;;;;;;;20.81;41.38;94581.69;4992993;28;20053;-61
2022/12/14 01:14:11;;;;;;;6.95;4.95;;;;;;;20.92;41.30;94597.19;4996771;28;20052;-61
2022/12/14 01:16:37;;;;;;;6.97;5.10;;;;;;;20.89;40.98;94598.19;5014045;28;20477;-61
2022/12/14 01:19:02;;;;;;;6.35;5.10;;;;;;;20.82;41.29;94594.03;4980017;28;20056;-60
2022/12/14 01:21:28;;;;;;;6.70;5.40;;;;;;;20.10;41.27;94481.72;4988029;28;20149;-60
2022/12/14 01:23:57;;;;;;;6.65;5.10;;;;;;;20.86;41.41;94601.91;4995565;28;20601;-62
2022/12/14 01:26:23;;;;;;;5.97;5.15;;;;;;;20.89;41.39;94598.19;5012947;28;20045;-61
2022/12/14 01:28:51;;;;;;;6.22;5.30;;;;;;;20.42;41.33;94528.88;5013524;28;20797;-62
2022/12/14 01:31:19;;;;;;;6.03;4.88;;;;;;;20.91;41.27;94595.69;5012093;28;20049;-61
2022/12/14 01:33:44;;;;;;;6.32;5.18;;;;;;;20.86;41.21;94588.31;5013587;28;20525;-62
2022/12/14 01:36:12;;;;;;;6.60;5.30;;;;;;;20.88;41.89;94580.41;4963740;28;20055;-59
2022/12/14 01:38:37;;;;;;;7.40;5.70;;;;;;;20.75;41.35;94572.13;5014835;28;20548;-61
2022/12/14 01:41:03;;;;;;;6.75;5.15;;;;;;;20.63;41.49;94551.69;5013942;28;20152;-61
2022/12/14 01:44:07;;;;;;;7.50;5.25;;;;;;;20.84;41.32;94569.09;5014215;28;20762;-61
2022/12/14 01:46:49;;;;;;;6.97;5.50;;;;;;;20.72;41.37;94551.41;4934526;28;20051;-59
2022/12/14 01:49:30;;;;;;;6.45;5.10;;;;;;;20.82;41.51;94571.56;4992387;28;20523;-61
2022/12/14 01:51:59;;;;;;;6.75;4.88;;;;;;;20.83;41.36;94573.06;5017384;28;20056;-60
2022/12/14 01:54:25;;;;;;;6.97;5.25;;;;;;;20.74;41.37;94565.22;4985386;28;20122;-60
2022/12/14 01:56:50;;;;;;;7.00;5.63;;;;;;;20.82;41.35;94568.84;4997565;28;20056;-62
2022/12/14 01:59:23;;;;;;;6.75;5.28;;;;;;;20.81;41.30;94567.41;4992608;28;20605;-61
2022/12/14 02:01:49;;;;;;;6.30;5.13;;;;;;;20.22;41.45;94477.72;4999420;28;21109;-63
2022/12/14 02:04:14;;;;;;;6.80;5.50;;;;;;;20.71;41.35;94547.22;5015538;28;20127;-61
2022/12/14 02:06:40;;;;;;;5.93;5.25;;;;;;;20.47;41.50;94519.97;4991225;28;20411;-62
2022/12/14 02:09:07;;;;;;;5.95;5.35;;;;;;;19.99;41.38;94447.78;5005930;28;20056;-61
2022/12/14 02:11:43;;;;;;;7.05;5.30;;;;;;;20.73;41.49;94561.00;4999264;28;20045;-61
2022/12/14 02:14:08;;;;;;;6.63;5.15;;;;;;;20.64;41.53;94545.00;4998285;28;20064;-61
2022/12/14 02:16:34;;;;;;;6.53;5.43;;;;;;;20.78;41.68;94560.25;5017264;28;20041;-61
2022/12/14 02:18:59;;;;;;;7.22;5.32;;;;;;;20.76;41.53;94551.88;5017107;28;20721;-62
2022/12/14 02:21:39;;;;;;;6.25;5.20;;;;;;;20.45;41.48;94514.31;5016806;28;20136;-61
2022/12/14 02:24:33;;;;;;;6.55;5.43;;;;;;;20.60;41.71;94533.69;4997400;28;20049;-61
2022/12/14 02:27:26;;;;;;;7.18;5.43;;;;;;;20.74;41.57;94548.94;5000822;28;20061;-64
2022/12/14 02:30:05;;;;;;;6.82;5.40;;;;;;;20.08;41.66;94462.50;5015728;28;21621;-61
2022/12/14 02:32:55;;;;;;;7.00;5.80;;;;;;;20.73;41.49;94537.34;5015341;28;20041;-62
2022/12/14 02:35:24;;;;;;;7.50;5.85;;;;;;;20.74;41.80;94538.06;5016210;28;20123;-61
2022/12/14 02:38:13;;;;;;;5.78;4.82;;;;;;;20.73;41.65;94536.59;5016207;28;20036;-61
2022/12/14 02:40:46;;;;;;;7.35;5.65;;;;;;;20.53;41.73;94498.97;5017846;28;20069;-61
2022/12/14 02:43:30;;;;;;;7.03;5.40;;;;;;;20.74;41.45;94538.06;5017255;28;20135;-63
2022/12/14 02:46:08;;;;;;;6.63;5.38;;;;;;;20.73;41.78;94536.59;5008786;28;20061;-61
2022/12/14 02:48:39;;;;;;;7.03;5.13;;;;;;;20.57;41.63;94515.72;4998278;28;20045;-61
2022/12/14 02:51:14;;;;;;;5.85;5.03;;;;;;;20.70;41.75;94537.59;5016469;28;20177;-62
2022/12/14 02:53:42;;;;;;;7.13;5.50;;;;;;;20.00;41.64;94423.63;5013191;28;20053;-61
2022/12/14 02:56:08;;;;;;;6.65;5.25;;;;;;;20.58;41.63;94514.47;5016492;28;20045;-60
2022/12/14 02:58:36;;;;;;;7.50;5.47;;;;;;;20.10;41.88;94438.34;4997010;28;20053;-62
2022/12/14 03:01:02;;;;;;;6.03;4.93;;;;;;;20.57;41.62;94529.28;5014782;28;20050;-61
2022/12/14 03:03:27;;;;;;;6.60;5.30;;;;;;;20.10;41.58;94438.34;4998412;28;21180;-62
2022/12/14 03:06:01;;;;;;;6.38;4.97;;;;;;;20.74;41.65;94532.66;5015477;28;21626;-61
2022/12/14 03:08:28;;;;;;;7.05;5.25;;;;;;;20.68;41.75;94519.13;5013687;28;20115;-62
2022/12/14 03:10:57;;;;;;;6.28;5.05;;;;;;;20.68;41.83;94529.97;5007141;28;20063;-61
2022/12/14 03:13:30;;;;;;;6.20;5.07;;;;;;;19.90;41.70;94431.81;4981269;28;20068;-61
2022/12/14 03:16:12;;;;;;;7.43;5.40;;;;;;;20.35;41.65;94480.59;5012765;28;20063;-59
2022/12/14 03:18:44;;;;;;;6.07;5.32;;;;;;;20.21;41.65;94470.09;4989552;28;20987;-61
2022/12/14 03:21:10;;;;;;;6.00;5.10;;;;;;;20.66;41.75;94528.97;4989983;28;20049;-61
2022/12/14 03:23:37;;;;;;;7.00;5.22;;;;;;;20.65;41.92;94535.63;4994902;28;20382;-61
2022/12/14 03:26:27;;;;;;;6.00;5.10;;;;;;;20.68;41.65;94524.53;5005839;28;20070;-62
2022/12/14 03:28:59;;;;;;;6.75;5.45;;;;;;;20.68;41.39;94507.53;5015480;28;21657;-61
2022/12/14 03:31:45;;;;;;;5.93;4.88;;;;;;;20.67;41.79;94516.88;4980509;28;20049;-61
2022/12/14 03:34:12;;;;;;;6.57;5.30;;;;;;;20.52;41.80;94500.19;5000321;28;20052;-61
2022/12/14 03:36:48;;;;;;;6.30;4.85;;;;;;;20.66;41.63;94537.13;4984598;28;20056;-61
2022/12/14 03:39:17;;;;;;;7.00;5.28;;;;;;;20.64;41.70;94524.06;4996163;28;20060;-61
2022/12/14 03:41:45;;;;;;;6.23;5.30;;;;;;;20.63;41.72;94527.28;4997294;28;20115;-61
2022/12/14 03:44:35;;;;;;;6.45;5.00;;;;;;;20.66;41.57;94547.97;4988864;28;20044;-61
2022/12/14 03:47:38;;;;;;;5.53;4.68;;;;;;;20.67;41.56;94530.44;5015338;28;20053;-61
2022/12/14 03:50:16;;;;;;;6.13;4.88;;;;;;;19.28;41.52;94321.53;5014469;28;20057;-59
2022/12/14 03:53:13;;;;;;;5.88;4.70;;;;;;;20.62;41.80;94525.78;4995962;28;20140;-61
2022/12/14 03:56:09;;;;;;;5.88;4.60;;;;;;;20.61;41.71;94518.88;4996092;28;20049;-61
2022/12/14 03:58:58;;;;;;;6.38;5.07;;;;;;;20.58;41.90;94520.66;4998496;28;20045;-61
2022/12/14 04:01:24;;;;;;;6.07;4.60;;;;;;;20.65;41.80;94522.06;4995961;28;20095;-61
2022/12/14 04:04:01;;;;;;;6.03;4.68;;;;;;;20.65;41.73;94524.78;4990420;28;20087;-61
2022/12/14 04:06:46;;;;;;;5.45;4.68;;;;;;;20.64;41.52;94526.03;5012110;28;20056;-60
2022/12/14 04:09:44;;;;;;;6.78;4.85;;;;;;;20.45;41.77;94511.59;4994170;28;20056;-62
2022/12/14 04:20:52;;;;;;;5.93;4.93;;;;;;;20.11;41.80;94423.56;4993421;28;20435;-62
2022/12/14 04:26:13;;;;;;;5.88;4.50;;;;;;;20.93;41.47;94533.53;4993376;28;20068;-62
2022/12/14 04:31:27;;;;;;;5.40;4.38;;;;;;;21.16;40.88;94528.13;4992296;28;20051;-61
2022/12/14 04:33:54;;;;;;;4.95;4.10;;;;;;;20.68;40.66;94426.16;5014677;28;20052;-61
2022/12/14 04:36:34;;;;;;;5.55;4.70;;;;;;;21.48;40.42;94540.72;4984864;28;20048;-62
2022/12/14 04:39:05;;;;;;;4.03;3.63;;;;;;;21.41;40.53;94529.66;4998394;28;20049;-60
2022/12/14 04:41:35;;;;;;;5.15;3.92;;;;;;;21.41;40.45;94523.50;4978974;28;20041;-61
2022/12/14 04:44:04;;;;;;;6.07;4.30;;;;;;;21.60;40.34;94541.38;4996233;28;20087;-61
2022/12/14 04:46:31;;;;;;;5.03;4.40;;;;;;;21.62;40.06;94528.00;5012069;28;20060;-61
2022/12/14 04:49:19;;;;;;;5.07;3.90;;;;;;;21.78;40.00;94546.09;4982975;28;20053;-61
2022/12/14 04:51:46;;;;;;;5.40;3.92;;;;;;;22.02;39.88;94539.44;4995592;28;21037;-61
2022/12/14 04:54:25;;;;;;;5.07;3.90;;;;;;;21.25;39.69;94430.06;4995524;28;20064;-63
2022/12/14 04:57:07;;;;;;;4.72;3.60;;;;;;;22.14;39.64;94529.91;4998361;28;20176;-61
2022/12/14 04:59:33;;;;;;;4.75;3.60;;;;;;;22.34;39.60;94532.16;4995741;28;20131;-61
2022/12/14 05:02:16;;;;;;;4.60;3.97;;;;;;;22.57;39.25;94533.31;5006445;28;20055;-61
2022/12/14 05:05:05;;;;;;;4.75;3.95;;;;;;;22.58;38.89;94524.66;5014406;28;20064;-61
2022/12/14 05:07:55;;;;;;;5.00;3.17;;;;;;;22.78;38.63;94521.41;5005170;28;20089;-61
2022/12/14 05:10:42;;;;;;;4.65;3.50;;;;;;;22.12;38.61;94407.31;4979683;28;20710;-62
2022/12/14 05:13:17;;;;;;;4.68;3.60;;;;;;;22.80;38.36;94523.63;5013434;28;20095;-61
2022/12/14 05:15:51;;;;;;;4.75;3.50;;;;;;;22.91;38.62;94541.25;5012149;28;20176;-61
2022/12/14 05:18:16;;;;;;;4.10;3.42;;;;;;;22.86;38.63;94546.06;4999488;28;20041;-62
2022/12/14 05:20:42;;;;;;;3.65;3.20;;;;;;;22.62;39.07;94557.03;5002615;28;20144;-62
2022/12/14 05:23:08;;;;;;;4.65;3.50;;;;;;;22.36;39.00;94537.81;5010997;28;20040;-63
2022/12/14 05:25:34;;;;;;;3.88;3.15;;;;;;;22.33;39.08;94536.13;5019704;28;20087;-62
2022/12/14 05:27:59;;;;;;;5.18;3.40;;;;;;;22.88;38.80;94562.59;5021834;28;20132;-62
2022/12/14 05:30:25;;;;;;;4.47;3.33;;;;;;;22.82;38.54;94581.72;5002160;28;20049;-62
2022/12/14 05:32:51;;;;;;;4.05;3.15;;;;;;;22.91;38.31;94584.06;4984629;28;20059;-61
2022/12/14 05:35:16;;;;;;;3.75;3.10;;;;;;;22.87;38.59;94588.34;4987210;28;20569;-61
2022/12/14 05:37:42;;;;;;;3.88;3.35;;;;;;;22.64;38.30;94565.41;5018557;28;20045;-61
2022/12/14 05:40:08;;;;;;;4.22;3.53;;;;;;;22.78;38.31;94581.31;4999388;28;21101;-61
2022/12/14 05:42:33;;;;;;;3.83;3.03;;;;;;;22.52;38.82;94536.84;5020063;28;20037;-61
2022/12/14 05:44:59;;;;;;;5.07;3.28;;;;;;;23.00;38.25;94554.53;5019556;28;20060;-61
2022/12/14 05:47:25;;;;;;;5.07;3.15;;;;;;;23.16;38.13;94545.34;5017989;28;20246;-62
2022/12/14 05:49:50;;;;;;;4.88;3.20;;;;;;;23.51;37.51;94558.66;5021766;28;20033;-61
2022/12/14 05:52:16;;;;;;;4.32;3.03;;;;;;;23.34;37.48;94560.91;5004008;28;20045;-60
2022/12/14 05:54:41;;;;;;;3.45;2.92;;;;;;;23.09;37.68;94540.53;5005156;28;20758;-61
2022/12/14 05:57:07;;;;;;;3.80;2.95;;;;;;;23.23;37.42;94566.56;5022260;28;20045;-61
2022/12/14 05:59:32;;;;;;;3.50;2.90;;;;;;;23.03;37.67;94564.38;4996227;28;20040;-61
2022/12/14 06:01:58;;;;;;;3.47;3.03;;;;;;;23.01;37.53;94566.16;5019911;28;21713;-59
2022/12/14 06:04:23;;;;;;;3.28;2.80;;;;;;;23.13;37.50;94573.63;5007114;28;20060;-62
2022/12/14 06:06:49;;;;;;;4.00;3.00;;;;;;;23.30;37.53;94576.09;5002504;28;20076;-62
2022/12/14 06:09:15;;;;;;;3.75;2.83;;;;;;;23.26;36.91;94562.78;5001090;28;20080;-61
2022/12/14 06:11:41;;;;;;;5.70;3.20;;;;;;;23.32;37.08;94571.63;4990630;28;20804;-62
2022/12/14 06:14:06;;;;;;;4.50;2.90;;;;;;;23.08;38.04;94579.19;5018994;28;20080;-62
2022/12/14 06:16:32;;;;;;;3.13;2.55;;;;;;;23.04;37.91;94571.28;5017654;28;20059;-61
2022/12/14 06:18:59;;;;;;;7.38;3.13;;;;;;;22.84;37.48;94524.03;4999568;28;20664;-61
2022/12/14 06:21:32;;;;;;;6.50;2.65;;;;;;;23.18;38.28;94578.25;5019046;28;20052;-62
2022/12/14 06:23:57;;;;;;;5.38;2.80;;;;;;;22.43;38.42;94502.59;5019472;28;20634;-61
2022/12/14 06:26:23;;;;;;;11.05;2.80;;;;;;;22.82;39.61;94586.44;5010593;28;20040;-62
2022/12/14 06:28:48;;;;;;;3.42;2.63;;;;;;;22.75;41.62;94603.34;5013747;28;20029;-61
2022/12/14 06:31:27;;;;;;;3.33;2.50;;;;;;;22.78;41.74;94602.31;5013872;28;20150;-62
2022/12/14 06:33:53;;;;;;;3.35;2.42;;;;;;;22.92;41.37;94597.16;5014819;28;20049;-61
2022/12/14 06:36:38;;;;;;;3.85;2.40;;;;;;;22.77;40.93;94589.97;5007717;28;20049;-62
2022/12/14 06:39:06;;;;;;;4.78;2.95;;;;;;;22.34;41.47;94567.50;5016134;28;20202;-62
2022/12/14 06:41:32;;;;;;;3.60;2.72;;;;;;;22.30;41.84;94590.81;5006072;28;20036;-62
2022/12/14 06:44:04;;;;;;;3.78;2.70;;;;;;;22.20;40.55;94587.69;5016321;28;21395;-62
2022/12/14 06:46:30;;;;;;;3.72;2.53;;;;;;;22.29;40.43;94573.75;5013304;28;20060;-62
2022/12/14 06:48:55;;;;;;;4.43;2.45;;;;;;;22.21;41.23;94572.88;5003917;28;20224;-62
2022/12/14 06:51:21;;;;;;;3.65;2.22;;;;;;;21.95;40.78;94512.81;4973377;28;20513;-62
2022/12/14 06:53:51;;;;;;;4.25;2.63;;;;;;;22.51;40.69;94570.75;4983072;28;20064;-62
2022/12/14 06:56:16;;;;;;;3.80;2.20;;;;;;;22.39;40.35;94539.53;4995840;28;20047;-62
2022/12/14 06:58:42;;;;;;;3.03;2.30;;;;;;;22.41;40.34;94564.22;4996342;28;20323;-62
2022/12/14 07:01:12;;;;;;;3.97;2.53;;;;;;;22.35;40.60;94604.34;4997092;28;20145;-62
2022/12/14 07:03:37;;;;;;;3.88;2.28;;;;;;;22.38;40.64;94605.31;4991350;28;20052;-61
2022/12/14 07:06:03;;;;;;;4.03;2.33;;;;;;;21.85;40.24;94531.97;5013683;28;20045;-61
2022/12/14 07:08:30;;;;;;;3.80;2.60;;;;;;;22.51;40.56;94627.91;4995065;28;20134;-61
2022/12/14 07:10:55;;;;;;;2.55;1.92;;;;;;;22.53;40.48;94619.97;4977672;28;20039;-65
2022/12/14 07:13:21;;;;;;;3.65;2.35;;;;;;;22.77;39.85;94609.03;4994501;28;20068;-62
2022/12/14 07:15:54;;;;;;;3.67;2.20;;;;;;;22.46;40.13;94596.06;4982682;28;20058;-61
2022/12/14 07:18:19;;;;;;;3.42;2.35;;;;;;;22.67;39.90;94610.63;4957689;28;20046;-61
2022/12/14 07:21:05;;;;;;;3.33;2.33;;;;;;;22.70;39.76;94606.88;4955636;28;20107;-62
2022/12/14 07:23:32;;;;;;;2.72;2.13;;;;;;;22.73;39.70;94627.63;4957275;28;20038;-63
2022/12/14 07:26:10;;;;;;;3.28;2.25;;;;;;;22.93;39.22;94620.47;4982664;28;20037;-62
2022/12/14 07:28:36;;;;;;;3.50;2.25;;;;;;;23.00;39.00;94614.44;4982341;28;20050;-63
2022/12/14 07:31:02;;;;;;;3.72;2.30;;;;;;;22.83;39.19;94599.53;4968051;28;20054;-61
2022/12/14 07:33:27;;;;;;;3.05;2.03;;;;;;;23.04;38.85;94620.31;4951720;28;20482;-62
2022/12/14 07:36:09;;;;;;;2.83;2.20;;;;;;;23.13;38.91;94622.66;4973581;28;20062;-63
2022/12/14 07:38:36;;;;;;;3.05;2.10;;;;;;;23.04;39.06;94628.47;4966617;28;20044;-62
2022/12/14 07:41:09;;;;;;;3.72;2.28;;;;;;;22.90;38.90;94604.41;4964673;28;20030;-62
2022/12/14 07:43:35;;;;;;;3.20;2.17;;;;;;;23.08;39.08;94623.47;4967773;28;20068;-62
2022/12/14 07:46:03;;;;;;;3.78;2.50;;;;;;;23.32;38.41;94655.31;4966759;28;20058;-63
2022/12/14 07:48:29;;;;;;;2.83;1.98;;;;;;;23.10;38.68;94634.59;4965927;28;20763;-61
2022/12/14 07:50:59;;;;;;;3.47;2.60;;;;;;;23.15;38.49;94620.16;4965987;28;20066;-61
2022/12/14 07:53:24;;;;;;;4.68;2.08;;;;;;;22.99;38.57;94596.63;4983670;28;20038;-62
2022/12/14 07:55:50;;;;;;;3.00;2.10;;;;;;;23.00;38.95;94608.25;4951624;28;20038;-62
2022/12/14 07:58:15;;;;;;;3.80;2.25;;;;;;;22.90;38.77;94594.25;4967464;28;20054;-62
2022/12/14 08:00:41;;;;;;;3.22;2.08;;;;;;;23.31;38.36;94621.91;4967075;28;20077;-62
2022/12/14 08:03:06;;;;;;;2.85;2.08;;;;;;;23.27;38.52;94626.91;4981131;28;20172;-62
2022/12/14 08:05:32;;;;;;;2.30;1.90;;;;;;;23.26;38.63;94625.44;4967486;28;20069;-62
2022/12/14 08:07:57;;;;;;;2.50;2.00;;;;;;;23.65;37.83;94622.91;4968778;28;20195;-61
2022/12/14 08:10:23;;;;;;;4.18;2.40;;;;;;;23.55;37.75;94640.88;4966103;28;20050;-62
2022/12/14 08:12:49;;;;;;;4.03;2.17;;;;;;;23.37;38.35;94646.34;4966050;28;20052;-62
2022/12/14 08:15:14;;;;;;;3.35;1.92;;;;;;;23.44;38.39;94638.31;4995563;28;20132;-62
2022/12/14 08:17:40;;;;;;;3.33;2.30;;;;;;;23.27;38.30;94648.69;4995615;28;20069;-62
2022/12/14 08:20:06;;;;;;;2.88;2.20;;;;;;;23.36;37.96;94629.25;5013706;28;20491;-62
2022/12/14 08:22:31;;;;;;;2.63;2.00;;;;;;;23.47;38.04;94645.47;4988722;28;20445;-61
2022/12/14 08:24:56;;;;;;;3.97;1.98;;;;;;;22.63;37.79;94531.25;4995545;28;20060;-61
2022/12/14 08:27:22;;;;;;;2.90;2.08;;;;;;;23.55;37.59;94657.22;4994330;28;20582;-61
2022/12/14 08:29:47;;;;;;;3.75;2.10;;;;;;;23.57;38.02;94688.16;4995285;28;20060;-61
2022/12/14 08:32:13;;;;;;;3.53;2.20;;;;;;;23.42;38.21;94654.44;4993663;28;20047;-61
2022/12/14 08:34:38;;;;;;;2.95;2.00;;;;;;;23.53;37.52;94659.72;5013391;28;20053;-61
2022/12/14 08:37:04;;;;;;;3.33;2.30;;;;;;;23.01;37.58;94572.31;4997600;28;20709;-61
2022/12/14 08:39:29;;;;;;;4.65;2.40;;;;;;;22.24;37.64;94435.84;4995095;28;20049;-62
2022/12/14 08:41:55;;;;;;;3.05;2.30;;;;;;;23.58;37.63;94634.38;5012693;28;20468;-61
2022/12/14 08:44:20;;;;;;;2.90;2.30;;;;;;;23.77;36.91;94630.38;4996771;28;20129;-61
2022/12/14 08:46:46;;;;;;;3.28;2.20;;;;;;;23.18;37.23;94564.63;5013363;28;20109;-61
2022/12/14 08:49:12;;;;;;;2.63;2.03;;;;;;;23.58;37.07;94623.47;5012693;28;20055;-61
2022/12/14 08:51:37;;;;;;;4.13;2.20;;;;;;;23.77;37.35;94667.81;5013941;28;20520;-62
2022/12/14 08:54:03;;;;;;;3.22;2.30;;;;;;;23.43;37.07;94579.59;4996963;28;20045;-62
2022/12/14 08:56:28;;;;;;;4.18;2.47;;;;;;;23.81;36.97;94646.41;5014328;28;20110;-61
2022/12/14 08:58:54;;;;;;;3.13;2.28;;;;;;;23.45;37.79;94643.25;4995211;28;20674;-62
2022/12/14 09:01:24;;;;;;;3.85;1.98;;;;;;;23.67;37.54;94647.66;5013854;28;21369;-61
2022/12/14 09:03:49;;;;;;;;;;;;;;;23.70;37.27;94641.16;5014935;28;20369;-61
2022/12/14 09:06:19;;;;;;;3.73;2.37;;;;;;;23.48;37.31;94598.59;4980450;28;20335;-62
2022/12/14 09:08:44;;;;;;;3.22;2.05;;;;;;;23.87;36.60;94624.00;5013640;28;20451;-61
2022/12/14 09:11:14;;;;;;;3.60;2.65;;;;;;;23.66;37.02;94673.41;4979392;28;20045;-61
2022/12/14 09:13:39;;;;;;;2.95;2.30;;;;;;;23.47;37.50;94612.75;5011872;28;20056;-62
2022/12/14 09:16:16;;;;;;;3.53;2.40;;;;;;;23.75;36.88;94615.78;4990254;28;20041;-62
2022/12/14 09:18:43;;;;;;;2.97;2.15;;;;;;;23.74;36.93;94619.78;4993925;28;20057;-61
2022/12/14 09:21:09;;;;;;;2.60;1.75;;;;;;;23.64;37.04;94583.25;4994910;28;20383;-60
2022/12/14 09:23:34;;;;;;;3.38;2.28;;;;;;;24.06;36.19;94630.09;4995228;28;21429;-61
2022/12/14 09:26:12;;;;;;;3.45;2.20;;;;;;;23.28;37.06;94541.22;5014129;28;20037;-61
2022/12/14 09:28:39;;;;;;;3.40;2.47;;;;;;;23.81;37.03;94608.25;5004149;28;20049;-62
2022/12/14 09:31:06;;;;;;;3.30;2.30;;;;;;;23.69;36.91;94601.50;5005022;28;20072;-61
2022/12/14 09:33:31;;;;;;;3.25;2.30;;;;;;;23.70;36.75;94578.44;5013322;28;20068;-62
2022/12/14 09:36:21;;;;;;;3.20;2.15;;;;;;;23.93;36.45;94578.28;4994892;28;20050;-61
2022/12/14 09:38:46;;;;;;;3.00;2.08;;;;;;;24.08;36.59;94611.22;4996077;28;20057;-61
2022/12/14 09:41:28;;;;;;;4.00;2.10;;;;;;;23.74;36.91;94576.16;5010825;28;20610;-61
2022/12/14 09:44:18;;;;;;;3.47;2.30;;;;;;;23.85;36.65;94603.22;5010698;28;20049;-62
2022/12/14 09:47:07;;;;;;;;;;;;;;;23.84;36.54;94604.47;5012320;28;20822;-61
2022/12/14 09:49:45;;;;;;;3.78;2.38;;;;;;;23.30;36.12;94495.09;4996995;28;20015;-64
2022/12/14 09:52:19;;;;;;;3.75;2.10;;;;;;;23.78;36.35;94585.50;5012193;28;20045;-62
2022/12/14 09:54:45;;;;;;;3.72;2.22;;;;;;;23.93;36.21;94583.72;4994989;28;20059;-62
2022/12/14 09:57:33;;;;;;;2.88;2.20;;;;;;;24.12;35.95;94605.47;5009509;28;20045;-62
2022/12/14 09:59:58;;;;;;;3.25;2.17;;;;;;;24.09;36.60;94595.59;4992053;28;20052;-63
2022/12/14 10:02:31;;;;;;;3.58;2.38;;;;;;;23.57;36.49;94515.69;4993664;28;20755;-61
2022/12/14 10:05:16;;;;;;;3.50;2.40;;;;;;;23.79;36.44;94567.13;4995574;28;20036;-61
2022/12/14 10:08:27;;;;;;;3.28;2.50;;;;;;;24.00;36.13;94587.81;5000540;28;20044;-62
2022/12/14 10:11:24;;;;;;;2.40;1.90;;;;;;;23.76;36.68;94544.38;4920709;28;20181;-61
2022/12/14 10:14:14;;;;;;;4.05;2.30;;;;;;;23.99;36.42;94587.09;4924096;28;20063;-62
2022/12/14 10:16:42;;;;;;;;;;;;;;;24.03;36.25;94576.59;4969658;28;20053;-62
2022/12/14 10:19:36;;;;;;;4.18;2.50;;;;;;;24.08;36.02;94578.50;4982520;28;19929;-62
2022/12/14 10:22:13;;;;;;;3.03;2.38;;;;;;;24.09;36.59;94590.88;4976714;28;20057;-62
2022/12/14 10:24:44;;;;;;;3.53;2.40;;;;;;;23.82;36.43;94577.00;4946230;28;20053;-62
2022/12/14 10:27:11;;;;;;;3.83;2.65;;;;;;;23.56;36.22;94486.97;4976174;28;20056;-60
2022/12/14 10:29:42;;;;;;;3.03;2.20;;;;;;;24.25;35.92;94576.19;4958993;28;20030;-61
2022/12/14 10:32:08;;;;;;;3.20;2.10;;;;;;;24.30;35.75;94561.69;4977486;28;20771;-61
2022/12/14 10:34:33;;;;;;;3.70;2.40;;;;;;;24.56;35.72;94565.16;4978086;28;20062;-61
2022/12/14 10:37:05;;;;;;;3.92;2.30;;;;;;;24.60;35.66;94551.19;4993275;28;20147;-62
2022/12/14 10:39:46;;;;;;;3.63;2.60;;;;;;;24.54;35.78;94553.28;4975601;28;20132;-60
2022/12/14 10:42:21;;;;;;;3.70;2.20;;;;;;;24.26;36.06;94534.00;4977532;28;20054;-61
2022/12/14 10:44:56;;;;;;;3.40;2.17;;;;;;;24.41;36.02;94551.31;4974042;28;20120;-61
2022/12/14 10:47:30;;;;;;;5.40;2.60;;;;;;;24.15;36.04;94547.84;4972679;28;20034;-61
2022/12/14 10:50:28;;;;;;;3.40;2.22;;;;;;;24.26;36.05;94544.91;4961308;28;20022;-62
2022/12/14 10:52:53;;;;;;;4.88;2.80;;;;;;;24.12;36.42;94523.63;4976746;28;20200;-61
2022/12/14 10:55:22;;;;;;;3.70;2.50;;;;;;;23.82;36.13;94457.03;4977541;28;20046;-62
2022/12/14 10:57:47;;;;;;;4.60;2.60;;;;;;;24.39;36.10;94547.66;4972831;28;20133;-62
2022/12/14 11:00:15;;;;;;;4.22;2.33;;;;;;;24.43;35.79;94539.88;4975919;28;20115;-61
2022/12/14 11:02:42;;;;;;;4.45;2.97;;;;;;;24.12;36.28;94535.25;4957588;28;20053;-62
2022/12/14 11:05:34;;;;;;;4.05;2.65;;;;;;;24.02;36.05;94523.31;4993143;28;20045;-62
2022/12/14 11:07:59;;;;;;;3.70;2.70;;;;;;;24.25;36.41;94540.72;4957761;28;20065;-63
2022/12/14 11:10:29;;;;;;;4.18;2.40;;;;;;;24.24;35.73;94522.88;4973820;28;20062;-62
2022/12/14 11:13:02;;;;;;;;;;;;;;;24.48;36.07;94525.38;4955147;28;20054;-62
2022/12/14 11:15:30;;;;;;;3.65;2.30;;;;;;;24.31;36.12;94524.25;4970328;28;19928;-62
2022/12/14 11:18:14;;;;;;;4.70;2.78;;;;;;;24.33;35.84;94517.00;4995396;28;20140;-61
2022/12/14 11:21:06;;;;;;;3.72;2.50;;;;;;;24.21;36.40;94526.66;4994982;28;20191;-62
2022/12/14 11:23:39;;;;;;;4.72;2.60;;;;;;;24.27;36.07;94519.09;4989181;28;20162;-62
2022/12/14 11:26:06;;;;;;;4.10;2.38;;;;;;;24.48;36.10;94517.19;4995904;28;20046;-62
2022/12/14 11:28:37;;;;;;;3.58;2.45;;;;;;;23.55;35.91;94373.75;4995221;28;20049;-62
2022/12/14 11:31:34;;;;;;;4.20;2.50;;;;;;;24.62;35.46;94513.16;4970483;28;20057;-61
2022/12/14 11:34:01;;;;;;;4.03;2.70;;;;;;;24.27;36.08;94512.91;5011732;28;20446;-61
2022/12/14 11:36:36;;;;;;;4.00;2.60;;;;;;;24.45;36.22;94529.16;4995094;28;20046;-63
2022/12/14 11:39:14;;;;;;;3.47;2.05;;;;;;;24.29;35.74;94500.22;4994010;28;20057;-62
2022/12/14 11:41:42;;;;;;;3.80;2.65;;;;;;;24.27;35.86;94486.34;4994188;28;20059;-62
2022/12/14 11:44:27;;;;;;;4.25;2.05;;;;;;;24.25;36.12;94510.69;4993895;28;20041;-61
2022/12/14 11:46:56;;;;;;;3.33;2.53;;;;;;;24.15;35.97;94490.56;4990613;28;20054;-61
2022/12/14 11:49:28;;;;;;;2.53;2.17;;;;;;;24.64;35.87;94507.91;4992667;28;20099;-62
2022/12/14 11:52:00;;;;;;;2.83;2.20;;;;;;;24.34;35.67;94499.38;4995314;28;20080;-62
2022/12/14 11:54:25;;;;;;;3.53;2.40;;;;;;;24.17;35.79;94471.69;4994946;28;20124;-62
2022/12/14 11:56:51;;;;;;;3.72;2.40;;;;;;;24.50;35.83;94501.03;4995047;28;20151;-63
2022/12/14 11:59:16;;;;;;;3.85;2.58;;;;;;;24.15;36.05;94487.81;4993735;28;20041;-60
2022/12/14 12:01:42;;;;;;;3.85;2.30;;;;;;;24.39;35.70;94487.59;4977006;28;20057;-62
2022/12/14 12:04:11;;;;;;;3.00;2.10;;;;;;;24.09;36.26;94468.09;4999544;28;20051;-62
2022/12/14 12:06:37;;;;;;;2.97;2.20;;;;;;;23.98;35.90;94459.44;5001806;28;20076;-63